sensor_id;sensor_type;location;lat;lon;timestamp;pressure;altitude;pressure_sealevel;temperature
38114;BMP180;23926;53.222;6.354;2022-11-20T00:01:46;101178.00;;;3.10
38114;BMP180;23926;53.222;6.354;2022-11-20T00:04:11;101184.00;;;3.30
38114;BMP180;23926;53.222;6.354;2022-11-20T00:06:37;101194.00;;;3.30
38114;BMP180;23926;53.222;6.354;2022-11-20T00:09:02;101174.00;;;3.40
38114;BMP180;23926;53.222;6.354;2022-11-20T00:11:30;101190.00;;;3.20
38114;BMP180;23926;53.222;6.354;2022-11-20T00:13:57;101186.00;;;3.20
38114;BMP180;23926;53.222;6.354;2022-11-20T00:16:25;101183.00;;;3.20
38114;BMP180;23926;53.222;6.354;2022-11-20T00:18:51;101182.00;;;3.10
38114;BMP180;23926;53.222;6.354;2022-11-20T00:21:27;101168.00;;;3.10
38114;BMP180;23926;53.222;6.354;2022-11-20T00:23:55;101164.00;;;3.20
38114;BMP180;23926;53.222;6.354;2022-11-20T00:26:22;101168.00;;;3.20
38114;BMP180;23926;53.222;6.354;2022-11-20T00:28:53;101160.00;;;3.20
38114;BMP180;23926;53.222;6.354;2022-11-20T00:31:19;101170.00;;;3.20
38114;BMP180;23926;53.222;6.354;2022-11-20T00:33:45;101165.00;;;3.30
38114;BMP180;23926;53.222;6.354;2022-11-20T00:36:16;101173.00;;;3.30
38114;BMP180;23926;53.222;6.354;2022-11-20T00:38:42;101168.00;;;3.40
38114;BMP180;23926;53.222;6.354;2022-11-20T00:41:10;101177.00;;;3.40
38114;BMP180;23926;53.222;6.354;2022-11-20T00:43:36;101170.00;;;3.50
38114;BMP180;23926;53.222;6.354;2022-11-20T00:46:09;101176.00;;;3.50
38114;BMP180;23926;53.222;6.354;2022-11-20T00:48:35;101172.00;;;3.40
38114;BMP180;23926;53.222;6.354;2022-11-20T00:51:01;101170.00;;;3.50
38114;BMP180;23926;53.222;6.354;2022-11-20T00:53:26;101157.00;;;3.50
38114;BMP180;23926;53.222;6.354;2022-11-20T00:55:56;101165.00;;;3.50
38114;BMP180;23926;53.222;6.354;2022-11-20T00:58:23;101149.00;;;3.50
38114;BMP180;23926;53.222;6.354;2022-11-20T01:00:49;101164.00;;;3.50
38114;BMP180;23926;53.222;6.354;2022-11-20T01:03:18;101159.00;;;3.60
38114;BMP180;23926;53.222;6.354;2022-11-20T01:05:43;101158.00;;;3.70
38114;BMP180;23926;53.222;6.354;2022-11-20T01:08:09;101147.00;;;3.70
38114;BMP180;23926;53.222;6.354;2022-11-20T01:10:34;101160.00;;;3.70
38114;BMP180;23926;53.222;6.354;2022-11-20T01:13:00;101152.00;;;3.70
38114;BMP180;23926;53.222;6.354;2022-11-20T01:15:43;101150.00;;;3.70
38114;BMP180;23926;53.222;6.354;2022-11-20T01:18:09;101151.00;;;3.70
38114;BMP180;23926;53.222;6.354;2022-11-20T01:20:35;101149.00;;;3.60
38114;BMP180;23926;53.222;6.354;2022-11-20T01:23:02;101151.00;;;3.70
38114;BMP180;23926;53.222;6.354;2022-11-20T01:25:27;101153.00;;;3.70
38114;BMP180;23926;53.222;6.354;2022-11-20T01:27:53;101145.00;;;3.70
38114;BMP180;23926;53.222;6.354;2022-11-20T01:30:18;101130.00;;;3.80
38114;BMP180;23926;53.222;6.354;2022-11-20T01:32:43;101142.00;;;3.80
38114;BMP180;23926;53.222;6.354;2022-11-20T01:35:09;101139.00;;;3.90
38114;BMP180;23926;53.222;6.354;2022-11-20T01:37:35;101128.00;;;3.90
38114;BMP180;23926;53.222;6.354;2022-11-20T01:40:01;101107.00;;;3.90
38114;BMP180;23926;53.222;6.354;2022-11-20T01:42:26;101142.00;;;3.90
38114;BMP180;23926;53.222;6.354;2022-11-20T01:48:14;101129.00;;;3.80
38114;BMP180;23926;53.222;6.354;2022-11-20T01:50:40;101109.00;;;3.90
38114;BMP180;23926;53.222;6.354;2022-11-20T01:53:10;101112.00;;;3.90
38114;BMP180;23926;53.222;6.354;2022-11-20T01:55:48;101104.00;;;4.00
38114;BMP180;23926;53.222;6.354;2022-11-20T01:58:15;101125.00;;;4.00
38114;BMP180;23926;53.222;6.354;2022-11-20T02:00:42;101123.00;;;3.90
38114;BMP180;23926;53.222;6.354;2022-11-20T02:03:11;101103.00;;;3.80
38114;BMP180;23926;53.222;6.354;2022-11-20T02:05:43;101105.00;;;3.80
38114;BMP180;23926;53.222;6.354;2022-11-20T02:08:10;101113.00;;;3.80
38114;BMP180;23926;53.222;6.354;2022-11-20T02:10:35;101085.00;;;3.70
38114;BMP180;23926;53.222;6.354;2022-11-20T02:13:01;101107.00;;;3.70
38114;BMP180;23926;53.222;6.354;2022-11-20T02:15:46;101094.00;;;3.70
38114;BMP180;23926;53.222;6.354;2022-11-20T02:18:14;101094.00;;;3.70
38114;BMP180;23926;53.222;6.354;2022-11-20T02:20:45;101096.00;;;3.70
38114;BMP180;23926;53.222;6.354;2022-11-20T02:23:12;101087.00;;;3.60
38114;BMP180;23926;53.222;6.354;2022-11-20T02:25:41;101088.00;;;3.70
38114;BMP180;23926;53.222;6.354;2022-11-20T02:28:08;101093.00;;;3.70
38114;BMP180;23926;53.222;6.354;2022-11-20T02:30:33;101084.00;;;3.80
38114;BMP180;23926;53.222;6.354;2022-11-20T02:32:59;101095.00;;;3.70
38114;BMP180;23926;53.222;6.354;2022-11-20T02:37:51;101076.00;;;3.80
38114;BMP180;23926;53.222;6.354;2022-11-20T02:40:20;101078.00;;;3.80
38114;BMP180;23926;53.222;6.354;2022-11-20T02:42:46;101090.00;;;3.80
38114;BMP180;23926;53.222;6.354;2022-11-20T02:45:12;101080.00;;;3.80
38114;BMP180;23926;53.222;6.354;2022-11-20T02:47:37;101105.00;;;3.70
38114;BMP180;23926;53.222;6.354;2022-11-20T02:50:04;101082.00;;;3.70
38114;BMP180;23926;53.222;6.354;2022-11-20T02:52:29;101082.00;;;3.70
38114;BMP180;23926;53.222;6.354;2022-11-20T02:54:55;101082.00;;;3.80
38114;BMP180;23926;53.222;6.354;2022-11-20T02:57:20;101067.00;;;3.80
38114;BMP180;23926;53.222;6.354;2022-11-20T02:59:46;101065.00;;;3.80
38114;BMP180;23926;53.222;6.354;2022-11-20T03:02:11;101061.00;;;3.80
38114;BMP180;23926;53.222;6.354;2022-11-20T03:04:36;101079.00;;;3.90
38114;BMP180;23926;53.222;6.354;2022-11-20T03:07:02;101076.00;;;4.00
38114;BMP180;23926;53.222;6.354;2022-11-20T03:09:28;101063.00;;;3.90
38114;BMP180;23926;53.222;6.354;2022-11-20T03:11:54;101076.00;;;3.90
38114;BMP180;23926;53.222;6.354;2022-11-20T03:14:19;101071.00;;;3.90
38114;BMP180;23926;53.222;6.354;2022-11-20T03:16:44;101057.00;;;3.90
38114;BMP180;23926;53.222;6.354;2022-11-20T03:19:11;101052.00;;;3.90
38114;BMP180;23926;53.222;6.354;2022-11-20T03:21:37;101057.00;;;3.90
38114;BMP180;23926;53.222;6.354;2022-11-20T03:24:02;101040.00;;;3.90
38114;BMP180;23926;53.222;6.354;2022-11-20T03:26:32;101040.00;;;4.00
38114;BMP180;23926;53.222;6.354;2022-11-20T03:29:00;101046.00;;;4.00
38114;BMP180;23926;53.222;6.354;2022-11-20T03:31:37;101021.00;;;4.00
38114;BMP180;23926;53.222;6.354;2022-11-20T03:34:03;101004.00;;;3.90
38114;BMP180;23926;53.222;6.354;2022-11-20T03:36:29;101006.00;;;3.90
38114;BMP180;23926;53.222;6.354;2022-11-20T03:38:56;101011.00;;;3.90
38114;BMP180;23926;53.222;6.354;2022-11-20T03:41:23;101017.00;;;3.80
38114;BMP180;23926;53.222;6.354;2022-11-20T03:44:03;101014.00;;;3.90
38114;BMP180;23926;53.222;6.354;2022-11-20T03:46:29;101014.00;;;4.00
38114;BMP180;23926;53.222;6.354;2022-11-20T03:48:55;101017.00;;;4.00
38114;BMP180;23926;53.222;6.354;2022-11-20T03:51:28;101002.00;;;4.00
38114;BMP180;23926;53.222;6.354;2022-11-20T03:53:56;101000.00;;;4.00
38114;BMP180;23926;53.222;6.354;2022-11-20T03:56:30;101009.00;;;4.10
38114;BMP180;23926;53.222;6.354;2022-11-20T03:58:56;101004.00;;;4.20
38114;BMP180;23926;53.222;6.354;2022-11-20T04:01:27;101012.00;;;4.10
38114;BMP180;23926;53.222;6.354;2022-11-20T04:03:55;101003.00;;;3.90
38114;BMP180;23926;53.222;6.354;2022-11-20T04:06:23;101013.00;;;3.90
38114;BMP180;23926;53.222;6.354;2022-11-20T04:08:49;101004.00;;;4.00
38114;BMP180;23926;53.222;6.354;2022-11-20T04:11:22;100994.00;;;4.00
38114;BMP180;23926;53.222;6.354;2022-11-20T04:13:51;101003.00;;;4.00
38114;BMP180;23926;53.222;6.354;2022-11-20T04:16:18;100996.00;;;4.10
38114;BMP180;23926;53.222;6.354;2022-11-20T04:18:44;100997.00;;;4.00
38114;BMP180;23926;53.222;6.354;2022-11-20T04:21:09;100992.00;;;4.10
38114;BMP180;23926;53.222;6.354;2022-11-20T04:23:35;101000.00;;;4.00
38114;BMP180;23926;53.222;6.354;2022-11-20T04:26:03;101007.00;;;4.10
38114;BMP180;23926;53.222;6.354;2022-11-20T04:28:29;101002.00;;;4.10
38114;BMP180;23926;53.222;6.354;2022-11-20T04:31:01;100972.00;;;4.20
38114;BMP180;23926;53.222;6.354;2022-11-20T04:33:27;100986.00;;;4.00
38114;BMP180;23926;53.222;6.354;2022-11-20T04:35:52;100986.00;;;3.90
38114;BMP180;23926;53.222;6.354;2022-11-20T04:38:18;100989.00;;;3.90
38114;BMP180;23926;53.222;6.354;2022-11-20T04:40:43;100980.00;;;3.80
38114;BMP180;23926;53.222;6.354;2022-11-20T04:43:08;100974.00;;;3.80
38114;BMP180;23926;53.222;6.354;2022-11-20T04:45:34;100984.00;;;3.80
38114;BMP180;23926;53.222;6.354;2022-11-20T04:47:59;100984.00;;;3.90
38114;BMP180;23926;53.222;6.354;2022-11-20T04:50:25;100982.00;;;4.00
38114;BMP180;23926;53.222;6.354;2022-11-20T04:52:50;100959.00;;;4.00
38114;BMP180;23926;53.222;6.354;2022-11-20T04:55:15;100969.00;;;4.10
38114;BMP180;23926;53.222;6.354;2022-11-20T04:57:41;100964.00;;;4.10
38114;BMP180;23926;53.222;6.354;2022-11-20T05:00:07;100966.00;;;4.20
38114;BMP180;23926;53.222;6.354;2022-11-20T05:02:32;100953.00;;;4.20
38114;BMP180;23926;53.222;6.354;2022-11-20T05:04:58;100956.00;;;4.20
38114;BMP180;23926;53.222;6.354;2022-11-20T05:07:23;100962.00;;;4.20
38114;BMP180;23926;53.222;6.354;2022-11-20T05:09:48;100959.00;;;4.30
38114;BMP180;23926;53.222;6.354;2022-11-20T05:12:14;100945.00;;;4.30
38114;BMP180;23926;53.222;6.354;2022-11-20T05:14:39;100933.00;;;4.30
38114;BMP180;23926;53.222;6.354;2022-11-20T05:17:04;100955.00;;;4.30
38114;BMP180;23926;53.222;6.354;2022-11-20T05:19:30;100949.00;;;4.30
38114;BMP180;23926;53.222;6.354;2022-11-20T05:21:55;100946.00;;;4.30
38114;BMP180;23926;53.222;6.354;2022-11-20T05:24:20;100962.00;;;4.30
38114;BMP180;23926;53.222;6.354;2022-11-20T05:26:46;100949.00;;;4.30
38114;BMP180;23926;53.222;6.354;2022-11-20T05:29:11;100966.00;;;4.20
38114;BMP180;23926;53.222;6.354;2022-11-20T05:31:39;100962.00;;;4.30
38114;BMP180;23926;53.222;6.354;2022-11-20T05:34:04;100958.00;;;4.30
38114;BMP180;23926;53.222;6.354;2022-11-20T05:36:30;100958.00;;;4.30
38114;BMP180;23926;53.222;6.354;2022-11-20T05:38:55;100957.00;;;4.40
38114;BMP180;23926;53.222;6.354;2022-11-20T05:41:21;100948.00;;;4.40
38114;BMP180;23926;53.222;6.354;2022-11-20T05:43:47;100955.00;;;4.40
38114;BMP180;23926;53.222;6.354;2022-11-20T05:46:15;100950.00;;;4.40
38114;BMP180;23926;53.222;6.354;2022-11-20T05:48:42;100954.00;;;4.30
38114;BMP180;23926;53.222;6.354;2022-11-20T05:51:09;100954.00;;;4.30
38114;BMP180;23926;53.222;6.354;2022-11-20T05:53:36;100938.00;;;4.30
38114;BMP180;23926;53.222;6.354;2022-11-20T05:56:04;100940.00;;;4.40
38114;BMP180;23926;53.222;6.354;2022-11-20T05:58:31;100946.00;;;4.30
38114;BMP180;23926;53.222;6.354;2022-11-20T06:01:09;100915.00;;;4.30
38114;BMP180;23926;53.222;6.354;2022-11-20T06:03:35;100942.00;;;4.30
38114;BMP180;23926;53.222;6.354;2022-11-20T06:06:01;100934.00;;;4.30
38114;BMP180;23926;53.222;6.354;2022-11-20T06:08:28;100922.00;;;4.30
38114;BMP180;23926;53.222;6.354;2022-11-20T06:10:53;100924.00;;;4.30
38114;BMP180;23926;53.222;6.354;2022-11-20T06:13:18;100935.00;;;4.30
38114;BMP180;23926;53.222;6.354;2022-11-20T06:15:51;100932.00;;;4.30
38114;BMP180;23926;53.222;6.354;2022-11-20T06:18:17;100939.00;;;4.30
38114;BMP180;23926;53.222;6.354;2022-11-20T06:20:43;100926.00;;;4.30
38114;BMP180;23926;53.222;6.354;2022-11-20T06:23:08;100936.00;;;4.30
38114;BMP180;23926;53.222;6.354;2022-11-20T06:25:40;100931.00;;;4.30
38114;BMP180;23926;53.222;6.354;2022-11-20T06:28:06;100935.00;;;4.30
38114;BMP180;23926;53.222;6.354;2022-11-20T06:30:32;100931.00;;;4.30
38114;BMP180;23926;53.222;6.354;2022-11-20T06:32:57;100931.00;;;4.30
38114;BMP180;23926;53.222;6.354;2022-11-20T06:35:22;100932.00;;;4.30
38114;BMP180;23926;53.222;6.354;2022-11-20T06:37:48;100917.00;;;4.30
38114;BMP180;23926;53.222;6.354;2022-11-20T06:40:13;100923.00;;;4.30
38114;BMP180;23926;53.222;6.354;2022-11-20T06:42:39;100924.00;;;4.40
38114;BMP180;23926;53.222;6.354;2022-11-20T06:45:04;100885.00;;;4.30
38114;BMP180;23926;53.222;6.354;2022-11-20T06:47:30;100900.00;;;4.40
38114;BMP180;23926;53.222;6.354;2022-11-20T06:49:55;100918.00;;;4.40
38114;BMP180;23926;53.222;6.354;2022-11-20T06:52:23;100917.00;;;4.30
38114;BMP180;23926;53.222;6.354;2022-11-20T06:54:48;100917.00;;;4.40
38114;BMP180;23926;53.222;6.354;2022-11-20T06:57:13;100910.00;;;4.40
38114;BMP180;23926;53.222;6.354;2022-11-20T06:59:39;100922.00;;;4.40
38114;BMP180;23926;53.222;6.354;2022-11-20T07:02:04;100922.00;;;4.30
38114;BMP180;23926;53.222;6.354;2022-11-20T07:04:30;100939.00;;;4.40
38114;BMP180;23926;53.222;6.354;2022-11-20T07:06:55;100923.00;;;4.30
38114;BMP180;23926;53.222;6.354;2022-11-20T07:09:20;100918.00;;;4.30
38114;BMP180;23926;53.222;6.354;2022-11-20T07:11:46;100930.00;;;4.30
38114;BMP180;23926;53.222;6.354;2022-11-20T07:14:11;100929.00;;;4.30
38114;BMP180;23926;53.222;6.354;2022-11-20T07:16:36;100917.00;;;4.40
38114;BMP180;23926;53.222;6.354;2022-11-20T07:19:02;100919.00;;;4.40
38114;BMP180;23926;53.222;6.354;2022-11-20T07:21:27;100930.00;;;4.40
38114;BMP180;23926;53.222;6.354;2022-11-20T07:23:52;100928.00;;;4.50
38114;BMP180;23926;53.222;6.354;2022-11-20T07:26:18;100932.00;;;4.50
38114;BMP180;23926;53.222;6.354;2022-11-20T07:28:45;100938.00;;;4.60
38114;BMP180;23926;53.222;6.354;2022-11-20T07:31:10;100928.00;;;4.50
38114;BMP180;23926;53.222;6.354;2022-11-20T07:33:37;100934.00;;;4.50
38114;BMP180;23926;53.222;6.354;2022-11-20T07:36:02;100922.00;;;4.50
38114;BMP180;23926;53.222;6.354;2022-11-20T07:38:28;100934.00;;;4.50
38114;BMP180;23926;53.222;6.354;2022-11-20T07:40:54;100919.00;;;4.60
38114;BMP180;23926;53.222;6.354;2022-11-20T07:43:20;100919.00;;;4.50
38114;BMP180;23926;53.222;6.354;2022-11-20T07:45:46;100932.00;;;4.50
38114;BMP180;23926;53.222;6.354;2022-11-20T07:48:11;100914.00;;;4.60
38114;BMP180;23926;53.222;6.354;2022-11-20T07:50:36;100913.00;;;4.60
38114;BMP180;23926;53.222;6.354;2022-11-20T07:53:06;100906.00;;;4.60
38114;BMP180;23926;53.222;6.354;2022-11-20T07:55:31;100917.00;;;4.70
38114;BMP180;23926;53.222;6.354;2022-11-20T07:57:57;100911.00;;;4.70
38114;BMP180;23926;53.222;6.354;2022-11-20T08:00:24;100915.00;;;4.80
38114;BMP180;23926;53.222;6.354;2022-11-20T08:02:50;100915.00;;;4.90
38114;BMP180;23926;53.222;6.354;2022-11-20T08:05:15;100906.00;;;4.80
38114;BMP180;23926;53.222;6.354;2022-11-20T08:07:42;100927.00;;;4.80
38114;BMP180;23926;53.222;6.354;2022-11-20T08:10:10;100917.00;;;4.80
38114;BMP180;23926;53.222;6.354;2022-11-20T08:12:36;100920.00;;;4.80
38114;BMP180;23926;53.222;6.354;2022-11-20T08:15:40;100934.00;;;4.70
38114;BMP180;23926;53.222;6.354;2022-11-20T08:18:10;100944.00;;;4.70
38114;BMP180;23926;53.222;6.354;2022-11-20T08:20:37;100931.00;;;4.70
38114;BMP180;23926;53.222;6.354;2022-11-20T08:23:04;100936.00;;;4.70
38114;BMP180;23926;53.222;6.354;2022-11-20T08:25:35;100947.00;;;4.80
38114;BMP180;23926;53.222;6.354;2022-11-20T08:28:03;100937.00;;;4.80
38114;BMP180;23926;53.222;6.354;2022-11-20T08:30:29;100938.00;;;4.80
38114;BMP180;23926;53.222;6.354;2022-11-20T08:33:04;100944.00;;;4.80
38114;BMP180;23926;53.222;6.354;2022-11-20T08:35:37;100936.00;;;4.90
38114;BMP180;23926;53.222;6.354;2022-11-20T08:38:03;100927.00;;;5.00
38114;BMP180;23926;53.222;6.354;2022-11-20T08:40:29;100941.00;;;5.00
38114;BMP180;23926;53.222;6.354;2022-11-20T08:42:55;100930.00;;;5.10
38114;BMP180;23926;53.222;6.354;2022-11-20T08:45:20;100937.00;;;5.20
38114;BMP180;23926;53.222;6.354;2022-11-20T08:47:46;100956.00;;;5.10
38114;BMP180;23926;53.222;6.354;2022-11-20T08:50:14;100967.00;;;5.20
38114;BMP180;23926;53.222;6.354;2022-11-20T08:52:39;100954.00;;;5.20
38114;BMP180;23926;53.222;6.354;2022-11-20T08:55:06;100955.00;;;5.20
38114;BMP180;23926;53.222;6.354;2022-11-20T08:57:33;100950.00;;;5.30
38114;BMP180;23926;53.222;6.354;2022-11-20T08:59:58;100939.00;;;5.30
38114;BMP180;23926;53.222;6.354;2022-11-20T09:02:24;100942.00;;;5.40
38114;BMP180;23926;53.222;6.354;2022-11-20T09:04:49;100927.00;;;5.50
38114;BMP180;23926;53.222;6.354;2022-11-20T09:07:15;100917.00;;;5.60
38114;BMP180;23926;53.222;6.354;2022-11-20T09:09:40;100918.00;;;5.70
38114;BMP180;23926;53.222;6.354;2022-11-20T09:12:05;100928.00;;;5.80
38114;BMP180;23926;53.222;6.354;2022-11-20T09:14:31;100920.00;;;5.80
38114;BMP180;23926;53.222;6.354;2022-11-20T09:16:57;100941.00;;;5.90
38114;BMP180;23926;53.222;6.354;2022-11-20T09:19:23;100935.00;;;6.00
38114;BMP180;23926;53.222;6.354;2022-11-20T09:21:49;100934.00;;;6.00
38114;BMP180;23926;53.222;6.354;2022-11-20T09:24:14;100931.00;;;6.10
38114;BMP180;23926;53.222;6.354;2022-11-20T09:26:40;100923.00;;;6.10
38114;BMP180;23926;53.222;6.354;2022-11-20T09:29:05;100926.00;;;6.10
38114;BMP180;23926;53.222;6.354;2022-11-20T09:31:31;100934.00;;;6.20
38114;BMP180;23926;53.222;6.354;2022-11-20T09:33:56;100928.00;;;6.20
38114;BMP180;23926;53.222;6.354;2022-11-20T09:36:21;100929.00;;;6.30
38114;BMP180;23926;53.222;6.354;2022-11-20T09:38:47;100918.00;;;6.40
38114;BMP180;23926;53.222;6.354;2022-11-20T09:50:21;100921.00;;;6.60
38114;BMP180;23926;53.222;6.354;2022-11-20T09:52:58;100925.00;;;6.60
38114;BMP180;23926;53.222;6.354;2022-11-20T09:55:27;100922.00;;;6.70
38114;BMP180;23926;53.222;6.354;2022-11-20T09:57:53;100907.00;;;6.80
38114;BMP180;23926;53.222;6.354;2022-11-20T10:00:19;100915.00;;;6.80
38114;BMP180;23926;53.222;6.354;2022-11-20T10:03:00;100907.00;;;6.80
38114;BMP180;23926;53.222;6.354;2022-11-20T10:05:41;100896.00;;;6.90
38114;BMP180;23926;53.222;6.354;2022-11-20T10:10:40;100888.00;;;6.80
38114;BMP180;23926;53.222;6.354;2022-11-20T10:24:15;100897.00;;;6.90
38114;BMP180;23926;53.222;6.354;2022-11-20T10:30:10;100890.00;;;6.70
38114;BMP180;23926;53.222;6.354;2022-11-20T10:32:39;100886.00;;;6.60
38114;BMP180;23926;53.222;6.354;2022-11-20T10:35:33;100887.00;;;6.50
38114;BMP180;23926;53.222;6.354;2022-11-20T10:38:03;100870.00;;;6.50
38114;BMP180;23926;53.222;6.354;2022-11-20T10:40:44;100871.00;;;6.40
38114;BMP180;23926;53.222;6.354;2022-11-20T10:43:18;100863.00;;;6.20
38114;BMP180;23926;53.222;6.354;2022-11-20T10:46:00;100860.00;;;6.10
38114;BMP180;23926;53.222;6.354;2022-11-20T10:48:27;100867.00;;;5.90
38114;BMP180;23926;53.222;6.354;2022-11-20T10:51:07;100862.00;;;5.90
38114;BMP180;23926;53.222;6.354;2022-11-20T10:56:42;100853.00;;;5.70
38114;BMP180;23926;53.222;6.354;2022-11-20T11:00:16;100855.00;;;5.70
38114;BMP180;23926;53.222;6.354;2022-11-20T11:02:18;100852.00;;;5.70
38114;BMP180;23926;53.222;6.354;2022-11-20T11:04:52;100837.00;;;5.60
38114;BMP180;23926;53.222;6.354;2022-11-20T11:07:24;100822.00;;;5.60
38114;BMP180;23926;53.222;6.354;2022-11-20T11:09:55;100825.00;;;5.50
38114;BMP180;23926;53.222;6.354;2022-11-20T11:12:24;100828.00;;;5.50
38114;BMP180;23926;53.222;6.354;2022-11-20T11:14:51;100830.00;;;5.40
38114;BMP180;23926;53.222;6.354;2022-11-20T11:17:35;100828.00;;;5.40
38114;BMP180;23926;53.222;6.354;2022-11-20T11:20:05;100830.00;;;5.50
38114;BMP180;23926;53.222;6.354;2022-11-20T11:22:34;100813.00;;;5.60
38114;BMP180;23926;53.222;6.354;2022-11-20T11:25:00;100818.00;;;5.60
38114;BMP180;23926;53.222;6.354;2022-11-20T11:27:26;100791.00;;;5.70
38114;BMP180;23926;53.222;6.354;2022-11-20T11:30:03;100816.00;;;5.90
38114;BMP180;23926;53.222;6.354;2022-11-20T11:32:29;100802.00;;;6.00
38114;BMP180;23926;53.222;6.354;2022-11-20T11:35:04;100797.00;;;6.10
38114;BMP180;23926;53.222;6.354;2022-11-20T11:37:38;100797.00;;;6.30
38114;BMP180;23926;53.222;6.354;2022-11-20T11:40:05;100792.00;;;6.40
38114;BMP180;23926;53.222;6.354;2022-11-20T11:42:31;100787.00;;;6.50
38114;BMP180;23926;53.222;6.354;2022-11-20T11:44:59;100777.00;;;6.60
38114;BMP180;23926;53.222;6.354;2022-11-20T11:47:46;100787.00;;;6.70
38114;BMP180;23926;53.222;6.354;2022-11-20T11:50:27;100781.00;;;6.90
38114;BMP180;23926;53.222;6.354;2022-11-20T11:53:22;100782.00;;;6.90
38114;BMP180;23926;53.222;6.354;2022-11-20T11:56:17;100773.00;;;7.00
38114;BMP180;23926;53.222;6.354;2022-11-20T11:58:52;100778.00;;;7.20
38114;BMP180;23926;53.222;6.354;2022-11-20T12:01:35;100762.00;;;7.20
38114;BMP180;23926;53.222;6.354;2022-11-20T12:04:46;100759.00;;;7.40
38114;BMP180;23926;53.222;6.354;2022-11-20T12:11:02;100733.00;;;7.50
38114;BMP180;23926;53.222;6.354;2022-11-20T12:16:14;100727.00;;;7.50
38114;BMP180;23926;53.222;6.354;2022-11-20T12:18:40;100751.00;;;7.70
38114;BMP180;23926;53.222;6.354;2022-11-20T12:23:44;100754.00;;;7.70
38114;BMP180;23926;53.222;6.354;2022-11-20T12:26:35;100731.00;;;7.70
38114;BMP180;23926;53.222;6.354;2022-11-20T12:34:51;100743.00;;;7.60
38114;BMP180;23926;53.222;6.354;2022-11-20T12:39:53;100768.00;;;7.60
38114;BMP180;23926;53.222;6.354;2022-11-20T13:00:00;100733.00;;;7.70
38114;BMP180;23926;53.222;6.354;2022-11-20T13:08:49;100688.00;;;7.60
38114;BMP180;23926;53.222;6.354;2022-11-20T13:14:11;100717.00;;;7.60
38114;BMP180;23926;53.222;6.354;2022-11-20T13:33:27;100688.00;;;7.50
38114;BMP180;23926;53.222;6.354;2022-11-20T13:36:04;100663.00;;;7.40
38114;BMP180;23926;53.222;6.354;2022-11-20T13:44:46;100635.00;;;7.30
38114;BMP180;23926;53.222;6.354;2022-11-20T14:00:25;100654.00;;;7.30
38114;BMP180;23926;53.222;6.354;2022-11-20T14:09:25;100631.00;;;7.00
38114;BMP180;23926;53.222;6.354;2022-11-20T14:15:35;100631.00;;;6.90
38114;BMP180;23926;53.222;6.354;2022-11-20T14:22:06;100569.00;;;6.70
38114;BMP180;23926;53.222;6.354;2022-11-20T14:41:27;100597.00;;;6.60
38114;BMP180;23926;53.222;6.354;2022-11-20T14:44:29;100595.00;;;6.50
38114;BMP180;23926;53.222;6.354;2022-11-20T14:57:04;100564.00;;;6.50
38114;BMP180;23926;53.222;6.354;2022-11-20T15:10:08;100554.00;;;6.00
38114;BMP180;23926;53.222;6.354;2022-11-20T15:12:37;100552.00;;;5.70
38114;BMP180;23926;53.222;6.354;2022-11-20T15:15:13;100538.00;;;5.70
38114;BMP180;23926;53.222;6.354;2022-11-20T15:24:59;100524.00;;;5.90
38114;BMP180;23926;53.222;6.354;2022-11-20T15:31:32;100537.00;;;5.70
38114;BMP180;23926;53.222;6.354;2022-11-20T15:43:55;100469.00;;;5.90
38114;BMP180;23926;53.222;6.354;2022-11-20T15:56:47;100468.00;;;6.00
38114;BMP180;23926;53.222;6.354;2022-11-20T16:16:37;100480.00;;;6.00
38114;BMP180;23926;53.222;6.354;2022-11-20T16:19:40;100476.00;;;5.90
38114;BMP180;23926;53.222;6.354;2022-11-20T16:23:06;100493.00;;;5.80
38114;BMP180;23926;53.222;6.354;2022-11-20T16:29:11;100495.00;;;5.90
38114;BMP180;23926;53.222;6.354;2022-11-20T16:35:43;100490.00;;;5.90
38114;BMP180;23926;53.222;6.354;2022-11-20T16:42:06;100480.00;;;5.90
38114;BMP180;23926;53.222;6.354;2022-11-20T16:44:54;100478.00;;;5.80
38114;BMP180;23926;53.222;6.354;2022-11-20T16:54:03;100435.00;;;5.80
38114;BMP180;23926;53.222;6.354;2022-11-20T17:00:11;100468.00;;;5.90
38114;BMP180;23926;53.222;6.354;2022-11-20T17:20:04;100469.00;;;5.80
38114;BMP180;23926;53.222;6.354;2022-11-20T17:28:52;100418.00;;;5.80
38114;BMP180;23926;53.222;6.354;2022-11-20T17:31:22;100423.00;;;5.80
38114;BMP180;23926;53.222;6.354;2022-11-20T17:34:34;100438.00;;;5.80
38114;BMP180;23926;53.222;6.354;2022-11-20T18:07:05;100397.00;;;5.80
38114;BMP180;23926;53.222;6.354;2022-11-20T18:13:19;100361.00;;;5.80
38114;BMP180;23926;53.222;6.354;2022-11-20T18:46:05;100354.00;;;5.70
38114;BMP180;23926;53.222;6.354;2022-11-20T18:49:07;100357.00;;;5.70
38114;BMP180;23926;53.222;6.354;2022-11-20T18:51:33;100371.00;;;5.70
38114;BMP180;23926;53.222;6.354;2022-11-20T18:54:12;100371.00;;;5.80
38114;BMP180;23926;53.222;6.354;2022-11-20T18:56:58;100390.00;;;5.80
38114;BMP180;23926;53.222;6.354;2022-11-20T18:59:23;100354.00;;;5.90
38114;BMP180;23926;53.222;6.354;2022-11-20T19:01:51;100356.00;;;5.90
38114;BMP180;23926;53.222;6.354;2022-11-20T19:10:53;100371.00;;;5.90
38114;BMP180;23926;53.222;6.354;2022-11-20T19:16:48;100341.00;;;5.80
38114;BMP180;23926;53.222;6.354;2022-11-20T19:26:10;100382.00;;;5.80
38114;BMP180;23926;53.222;6.354;2022-11-20T19:28:55;100360.00;;;5.70
38114;BMP180;23926;53.222;6.354;2022-11-20T19:32:00;100353.00;;;5.70
38114;BMP180;23926;53.222;6.354;2022-11-20T19:41:03;100382.00;;;5.70
38114;BMP180;23926;53.222;6.354;2022-11-20T19:43:40;100362.00;;;5.70
38114;BMP180;23926;53.222;6.354;2022-11-20T19:46:18;100388.00;;;5.70
38114;BMP180;23926;53.222;6.354;2022-11-20T19:48:57;100382.00;;;5.70
38114;BMP180;23926;53.222;6.354;2022-11-20T19:51:25;100402.00;;;5.70
38114;BMP180;23926;53.222;6.354;2022-11-20T19:53:51;100382.00;;;5.70
38114;BMP180;23926;53.222;6.354;2022-11-20T19:56:20;100392.00;;;5.70
38114;BMP180;23926;53.222;6.354;2022-11-20T19:58:45;100383.00;;;5.60
38114;BMP180;23926;53.222;6.354;2022-11-20T20:01:16;100408.00;;;5.60
38114;BMP180;23926;53.222;6.354;2022-11-20T20:03:42;100406.00;;;5.60
38114;BMP180;23926;53.222;6.354;2022-11-20T20:06:13;100419.00;;;5.60
38114;BMP180;23926;53.222;6.354;2022-11-20T20:08:40;100396.00;;;5.60
38114;BMP180;23926;53.222;6.354;2022-11-20T20:11:14;100404.00;;;5.70